Time;durP1;ratioP1;P1;durP2;ratioP2;P2;SDS_P1;SDS_P2;PMS_P1;PMS_P2;Temp;Humidity;BMP_temperature;BMP_pressure;BME280_temperature;BME280_humidity;BME280_pressure;Samples;Min_cycle;Max_cycle;Signal;HPM_P1;HPM_P2
2023/05/01 00:01:37;;;;;;;0.10;0.10;;;;;;;13.37;56.25;101908.50;5028744;28;20065;-82
2023/05/01 00:04:03;;;;;;;0.20;0.20;;;;;;;13.34;56.01;101897.84;5050835;28;20040;-82
2023/05/01 00:06:32;;;;;;;0.10;0.10;;;;;;;13.31;55.18;101900.59;5023585;28;20024;-82
2023/05/01 00:08:58;;;;;;;0.10;0.10;;;;;;;13.28;55.05;101897.94;5028331;28;20026;-81
2023/05/01 00:11:24;;;;;;;3.53;2.10;;;;;;;13.27;55.57;101901.50;5021158;28;20069;-82
2023/05/01 00:13:53;;;;;;;0.10;0.10;;;;;;;13.25;55.85;101898.88;5028293;28;20026;-82
2023/05/01 00:16:19;;;;;;;0.10;0.10;;;;;;;13.25;56.46;101890.88;5042733;28;20103;-82
2023/05/01 00:18:45;;;;;;;0.03;0.03;;;;;;;13.24;57.06;101888.25;5030557;28;20037;-80
2023/05/01 00:21:11;;;;;;;0.10;0.10;;;;;;;13.22;55.87;101888.28;5025251;28;20025;-80
2023/05/01 00:23:37;;;;;;;0.05;0.05;;;;;;;13.20;56.46;101884.75;5037027;28;20375;-81
2023/05/01 00:26:03;;;;;;;0.10;0.10;;;;;;;13.19;56.58;101887.44;5047244;28;20549;-80
2023/05/01 00:28:30;;;;;;;0.10;0.10;;;;;;;13.16;56.33;101885.72;5045562;28;20030;-80
2023/05/01 00:30:57;;;;;;;0.20;0.20;;;;;;;13.14;56.91;101868.88;5028377;28;20393;-81
2023/05/01 00:33:23;;;;;;;0.10;0.10;;;;;;;13.13;57.08;101872.44;5032257;28;20113;-82
2023/05/01 00:35:50;;;;;;;0.10;0.10;;;;;;;13.12;56.87;101868.00;5024739;28;20539;-81
2023/05/01 00:38:16;;;;;;;0.10;0.10;;;;;;;13.10;57.09;101867.16;5019993;28;20105;-82
2023/05/01 00:40:43;;;;;;;0.10;0.10;;;;;;;13.09;56.66;101865.41;5035967;28;20045;-82
2023/05/01 00:43:11;;;;;;;0.00;0.00;;;;;;;13.09;55.92;101865.41;5024777;28;20021;-80
2023/05/01 00:45:38;;;;;;;0.10;0.10;;;;;;;13.08;56.62;101864.53;5030814;28;20034;-82
2023/05/01 00:48:04;;;;;;;0.10;0.10;;;;;;;13.11;57.57;101848.50;5038279;28;20060;-82
2023/05/01 00:50:31;;;;;;;0.08;0.08;;;;;;;13.07;56.93;101851.22;5033388;28;20038;-81
2023/05/01 00:52:57;;;;;;;0.10;0.10;;;;;;;13.12;56.98;101846.72;5032233;28;20053;-82
2023/05/01 00:55:25;;;;;;;0.10;0.10;;;;;;;13.18;57.48;101841.31;5033813;27;20026;-82
2023/05/01 00:57:52;;;;;;;0.30;0.30;;;;;;;13.18;57.21;101843.97;5030912;27;20120;-82
2023/05/01 01:00:21;;;;;;;0.08;0.08;;;;;;;13.19;56.77;101835.09;5025712;27;20242;-82
2023/05/01 01:02:47;;;;;;;0.10;0.10;;;;;;;13.20;56.73;101836.84;5026138;28;20513;-80
2023/05/01 01:05:14;;;;;;;0.08;0.08;;;;;;;13.22;57.41;101834.16;5032936;27;20040;-82
2023/05/01 01:08:08;;;;;;;0.10;0.10;;;;;;;13.27;57.74;101830.53;5036283;28;20055;-80
2023/05/01 01:13:27;;;;;;;0.10;0.10;;;;;;;13.30;57.58;101818.97;5070104;28;20409;-82
2023/05/01 01:16:20;;;;;;;0.10;0.10;;;;;;;13.32;56.94;101814.50;5043726;28;20057;-83
2023/05/01 01:18:54;;;;;;;0.10;0.10;;;;;;;13.33;56.98;101810.06;5052068;28;20041;-82
2023/05/01 01:21:31;;;;;;;0.10;0.10;;;;;;;13.34;57.42;101804.69;5068079;28;20048;-84
2023/05/01 01:30:09;;;;;;;0.20;0.20;;;;;;;13.27;57.58;101798.59;5110416;27;1182422;-82
2023/05/01 01:33:05;;;;;;;0.10;0.10;;;;;;;13.42;57.12;101788.63;5106866;28;20047;-81
2023/05/01 01:35:32;;;;;;;0.10;0.10;;;;;;;13.37;56.95;101786.06;5107961;28;20036;-79
2023/05/01 01:38:22;;;;;;;0.10;0.10;;;;;;;13.48;56.29;101782.34;5101540;28;20033;-80
2023/05/01 01:43:31;;;;;;;0.10;0.10;;;;;;;13.43;56.64;101771.75;5071750;28;20417;-82
2023/05/01 01:46:04;;;;;;;0.40;0.40;;;;;;;13.46;56.89;101763.72;5042732;28;20033;-82
2023/05/01 01:48:35;;;;;;;0.10;0.10;;;;;;;13.49;56.78;101755.69;5053159;28;20033;-82
2023/05/01 01:51:07;;;;;;;0.10;0.10;;;;;;;13.50;56.88;101753.91;5051849;28;20029;-83
2023/05/01 01:53:36;;;;;;;0.10;0.10;;;;;;;13.48;56.42;101745.94;5045698;28;20040;-81
2023/05/01 01:56:05;;;;;;;0.10;0.10;;;;;;;13.48;56.79;101751.25;5047399;28;20049;-82
2023/05/01 01:58:33;;;;;;;0.10;0.10;;;;;;;13.48;56.33;101740.59;5047330;28;20036;-81
2023/05/01 02:01:00;;;;;;;0.05;0.05;;;;;;;13.49;56.98;101747.69;5053454;28;20083;-82
2023/05/01 02:03:29;;;;;;;0.00;0.00;;;;;;;13.51;57.18;101745.03;5047343;28;20111;-83
2023/05/01 02:05:57;;;;;;;0.10;0.10;;;;;;;13.50;57.64;101744.13;5052529;28;20432;-83
2023/05/01 02:08:24;;;;;;;0.10;0.10;;;;;;;13.54;57.11;101745.81;5039692;28;20033;-82
2023/05/01 02:10:56;;;;;;;0.08;0.08;;;;;;;13.54;56.84;101745.81;5043224;28;20455;-81
2023/05/01 02:13:23;;;;;;;0.10;0.10;;;;;;;13.56;56.92;101744.03;5043512;28;20056;-82
2023/05/01 02:15:50;;;;;;;0.10;0.10;;;;;;;13.54;57.16;101727.19;5039310;28;20394;-83
2023/05/01 02:18:18;;;;;;;0.10;0.10;;;;;;;13.54;56.63;101727.19;5044880;28;20032;-83
2023/05/01 02:20:44;;;;;;;0.10;0.10;;;;;;;13.53;57.21;101727.22;5039337;28;20044;-83
2023/05/01 02:23:11;;;;;;;0.10;0.10;;;;;;;13.52;57.09;101726.34;5050704;28;20037;-83
2023/05/01 02:25:39;;;;;;;0.10;0.10;;;;;;;13.52;57.05;101721.03;5044771;28;20029;-83
2023/05/01 02:28:13;;;;;;;0.10;0.10;;;;;;;13.53;57.07;101717.47;5042454;28;20108;-80
2023/05/01 02:30:40;;;;;;;0.00;0.00;;;;;;;13.50;57.16;101714.84;5045176;28;20113;-83
2023/05/01 02:33:07;;;;;;;0.10;0.10;;;;;;;13.51;57.33;101713.06;5039658;28;20034;-82
2023/05/01 02:35:39;;;;;;;0.10;0.10;;;;;;;13.54;57.20;101713.88;5041931;28;20076;-80
2023/05/01 02:38:06;;;;;;;0.10;0.10;;;;;;;13.51;56.91;101719.28;5048208;28;20402;-80
2023/05/01 02:40:33;;;;;;;0.05;0.05;;;;;;;13.50;57.15;101711.31;5048949;28;20025;-81
2023/05/01 02:43:03;;;;;;;0.03;0.03;;;;;;;13.48;57.26;101703.34;5052775;28;20533;-82
2023/05/01 02:45:31;;;;;;;0.73;0.50;;;;;;;13.49;57.34;101704.22;5046789;28;20033;-81
2023/05/01 02:48:00;;;;;;;0.10;0.10;;;;;;;13.47;57.35;101700.72;5042022;28;20387;-83
2023/05/01 02:50:27;;;;;;;0.10;0.10;;;;;;;13.43;56.89;101705.22;5045015;28;20112;-82
2023/05/01 02:52:53;;;;;;;0.00;0.00;;;;;;;13.41;57.20;101699.06;5044808;28;20037;-82
2023/05/01 02:55:20;;;;;;;0.00;0.00;;;;;;;13.39;57.53;101698.19;5034725;28;20686;-83
2023/05/01 02:57:46;;;;;;;0.10;0.10;;;;;;;13.39;57.23;101698.19;5035041;28;20032;-81
2023/05/01 03:00:13;;;;;;;0.10;0.10;;;;;;;13.38;57.29;101691.09;5028241;28;20379;-82
2023/05/01 03:02:39;;;;;;;0.10;0.10;;;;;;;13.39;57.26;101687.53;5029261;28;20095;-82
2023/05/01 03:05:06;;;;;;;0.10;0.10;;;;;;;13.38;57.05;101680.47;5026296;28;20029;-82
2023/05/01 03:07:34;;;;;;;0.10;0.10;;;;;;;13.37;56.98;101679.59;5027456;28;20112;-81
2023/05/01 03:10:03;;;;;;;0.13;0.13;;;;;;;13.40;56.94;101684.84;5024848;28;20443;-80
2023/05/01 03:12:29;;;;;;;0.00;0.00;;;;;;;13.38;57.37;101683.13;5025044;28;20030;-82
2023/05/01 03:14:56;;;;;;;0.10;0.10;;;;;;;13.39;57.14;101682.22;5031364;28;20040;-82
2023/05/01 03:17:22;;;;;;;0.03;0.03;;;;;;;13.40;57.59;101679.53;5023241;28;20034;-82
2023/05/01 03:19:48;;;;;;;0.10;0.10;;;;;;;13.39;57.30;101671.56;5040320;28;20037;-80
2023/05/01 03:22:15;;;;;;;0.10;0.10;;;;;;;13.39;57.92;101668.91;5030043;28;20028;-81
2023/05/01 03:24:41;;;;;;;0.10;0.10;;;;;;;13.38;57.46;101667.16;5040831;28;20040;-83
2023/05/01 03:27:08;;;;;;;0.10;0.10;;;;;;;13.37;57.45;101668.94;5023369;28;20025;-83
2023/05/01 03:29:36;;;;;;;0.10;0.10;;;;;;;13.39;57.59;101666.25;5031072;28;20086;-81
2023/05/01 03:32:03;;;;;;;0.10;0.10;;;;;;;13.39;58.03;101660.94;5031687;28;20462;-81
2023/05/01 03:34:29;;;;;;;0.10;0.10;;;;;;;13.40;57.92;101663.53;5029062;28;20546;-82
2023/05/01 03:36:55;;;;;;;0.10;0.10;;;;;;;13.41;57.85;101659.13;5036978;28;20364;-81
2023/05/01 03:39:22;;;;;;;0.10;0.10;;;;;;;13.42;57.60;101658.19;5041784;28;20116;-82
2023/05/01 03:41:48;;;;;;;0.03;0.03;;;;;;;13.41;57.87;101653.81;5035594;28;20025;-83
2023/05/01 03:44:14;;;;;;;0.10;0.10;;;;;;;13.43;57.66;101643.97;5044944;28;20029;-83
2023/05/01 03:46:40;;;;;;;0.10;0.10;;;;;;;13.46;58.07;101643.94;5041079;28;20037;-83
2023/05/01 03:49:06;;;;;;;0.10;0.10;;;;;;;13.49;57.64;101645.66;5042515;28;20025;-81
2023/05/01 03:51:33;;;;;;;0.10;0.10;;;;;;;13.49;57.73;101643.88;5036341;28;20032;-81
2023/05/01 03:53:59;;;;;;;0.03;0.03;;;;;;;13.49;57.71;101643.88;5036119;28;20029;-82
2023/05/01 03:56:25;;;;;;;0.10;0.10;;;;;;;13.49;57.66;101637.69;5030512;28;20129;-81
2023/05/01 03:58:52;;;;;;;0.00;0.00;;;;;;;13.51;58.05;101636.72;5021398;28;20030;-83
2023/05/01 04:01:18;;;;;;;0.00;0.00;;;;;;;13.52;58.00;101633.16;5035472;28;20061;-82
2023/05/01 04:03:45;;;;;;;0.05;0.05;;;;;;;13.53;58.06;101636.69;5031855;28;20032;-82
2023/05/01 04:06:11;;;;;;;0.00;0.00;;;;;;;13.55;57.81;101641.09;5029501;28;20029;-80
2023/05/01 04:08:38;;;;;;;0.08;0.08;;;;;;;13.55;57.78;101640.22;5026709;28;20040;-81
2023/05/01 04:11:04;;;;;;;0.00;0.00;;;;;;;13.55;57.94;101630.44;5036326;28;20399;-83
2023/05/01 04:13:30;;;;;;;0.10;0.10;;;;;;;13.56;57.81;101626.88;5024449;28;20049;-83
2023/05/01 04:15:58;;;;;;;0.10;0.10;;;;;;;13.58;57.45;101630.38;5031222;28;20104;-83
2023/05/01 04:18:24;;;;;;;0.10;0.10;;;;;;;13.59;57.82;101632.16;5037874;28;20036;-83
2023/05/01 04:20:51;;;;;;;0.10;0.10;;;;;;;13.59;57.86;101631.25;5034703;28;20052;-83
2023/05/01 04:23:17;;;;;;;0.10;0.10;;;;;;;13.59;57.84;101626.81;5036462;28;20704;-82
2023/05/01 04:25:43;;;;;;;0.10;0.10;;;;;;;13.63;57.75;101627.59;5035665;28;20782;-81
2023/05/01 04:28:11;;;;;;;0.10;0.10;;;;;;;13.64;57.85;101629.38;5033200;28;20557;-81
2023/05/01 04:30:37;;;;;;;0.10;0.10;;;;;;;13.64;57.72;101625.84;5037942;28;20033;-80
2023/05/01 04:33:10;;;;;;;0.10;0.10;;;;;;;13.65;57.47;101624.94;5035376;28;20028;-82
2023/05/01 04:35:38;;;;;;;;;;;;;;;13.80;57.59;101627.28;5034555;28;20040;-83
2023/05/01 04:38:04;;;;;;;0.08;0.08;;;;;;;13.67;57.27;101621.34;5025104;28;20310;-81
2023/05/01 04:40:30;;;;;;;0.10;0.10;;;;;;;13.66;57.50;101627.56;5033852;28;20083;-82
2023/05/01 04:42:56;;;;;;;0.10;0.10;;;;;;;13.68;57.65;101627.53;5027497;28;20026;-82
2023/05/01 04:45:23;;;;;;;0.08;0.08;;;;;;;13.70;57.39;101623.91;5029416;28;20434;-82
2023/05/01 04:47:49;;;;;;;0.00;0.00;;;;;;;13.71;57.63;101624.81;5025502;28;20071;-82
2023/05/01 04:50:15;;;;;;;0.00;0.00;;;;;;;13.73;58.10;101617.66;5030492;28;20399;-82
2023/05/01 04:52:41;;;;;;;0.10;0.10;;;;;;;13.74;58.84;101614.09;5031313;28;20025;-82
2023/05/01 04:55:08;;;;;;;2.20;0.47;;;;;;;13.77;59.60;101615.81;5029305;28;20041;-82
2023/05/01 04:57:34;;;;;;;0.10;0.10;;;;;;;13.78;59.50;101615.75;5030641;28;20055;-79
2023/05/01 05:00:02;;;;;;;0.00;0.00;;;;;;;13.80;59.71;101623.75;5022413;28;20483;-80
2023/05/01 05:02:28;;;;;;;0.10;0.10;;;;;;;13.80;59.80;101624.59;5025128;28;20029;-81
2023/05/01 05:04:55;;;;;;;0.10;0.10;;;;;;;13.81;60.11;101626.38;5033446;28;20453;-80
2023/05/01 05:07:22;;;;;;;0.10;0.10;;;;;;;13.83;60.59;101634.31;5028682;28;20112;-81
2023/05/01 05:09:48;;;;;;;0.10;0.10;;;;;;;13.83;60.33;101629.88;5026601;28;20053;-80
2023/05/01 05:12:14;;;;;;;0.03;0.03;;;;;;;13.84;61.03;101620.09;5034837;28;20026;-81
2023/05/01 05:14:42;;;;;;;0.30;0.30;;;;;;;13.87;61.09;101625.38;5032997;28;20037;-80
2023/05/01 05:17:08;;;;;;;0.10;0.10;;;;;;;13.86;60.99;101618.28;5025522;28;20026;-80
2023/05/01 05:19:35;;;;;;;0.10;0.10;;;;;;;13.89;61.30;101624.44;5028496;28;20087;-82
2023/05/01 05:22:03;;;;;;;0.03;0.03;;;;;;;13.93;61.19;101619.03;5026893;28;20105;-82
2023/05/01 05:24:29;;;;;;;0.05;0.05;;;;;;;13.94;61.34;101623.44;5027175;28;20037;-82
2023/05/01 05:26:55;;;;;;;0.10;0.10;;;;;;;13.96;61.61;101618.97;5024183;28;20440;-81
2023/05/01 05:29:22;;;;;;;0.10;0.10;;;;;;;13.98;61.69;101619.78;5018802;28;20030;-83
2023/05/01 05:31:48;;;;;;;0.10;0.10;;;;;;;13.99;61.79;101614.44;5024475;28;20036;-83
2023/05/01 05:34:14;;;;;;;0.10;0.10;;;;;;;14.01;61.79;101623.28;5023574;28;20057;-82
2023/05/01 05:36:40;;;;;;;0.00;0.00;;;;;;;14.04;62.24;101619.66;5016970;28;20040;-82
2023/05/01 05:39:06;;;;;;;1.65;1.17;;;;;;;14.05;61.95;101614.28;5026717;28;20033;-82
2023/05/01 05:41:32;;;;;;;0.20;0.20;;;;;;;14.06;61.98;101609.84;5018855;28;20215;-82
2023/05/01 05:43:58;;;;;;;0.10;0.10;;;;;;;14.09;62.08;101615.09;5026175;28;20038;-82
2023/05/01 05:46:24;;;;;;;0.10;0.10;;;;;;;14.10;62.20;101611.53;5020594;28;20034;-79
2023/05/01 05:48:51;;;;;;;0.10;0.10;;;;;;;14.13;62.11;101608.81;5022267;28;20026;-78
2023/05/01 05:51:18;;;;;;;0.10;0.10;;;;;;;14.16;62.08;101607.88;5031097;28;20045;-80
2023/05/01 05:53:44;;;;;;;0.20;0.20;;;;;;;14.18;61.65;101604.25;5018080;28;20112;-79
2023/05/01 05:56:10;;;;;;;0.10;0.10;;;;;;;14.22;61.85;101611.25;5027035;28;20033;-83
2023/05/01 05:58:36;;;;;;;5.47;0.88;;;;;;;14.26;61.56;101600.53;5021142;28;20057;-80
2023/05/01 06:01:02;;;;;;;0.10;0.10;;;;;;;14.30;61.21;101610.22;5019547;28;20033;-81
2023/05/01 06:03:28;;;;;;;0.10;0.10;;;;;;;14.32;61.04;101603.06;5021753;28;20674;-82
2023/05/01 06:05:54;;;;;;;0.05;0.05;;;;;;;14.38;60.99;101594.88;5013735;28;20037;-82
2023/05/01 06:08:21;;;;;;;0.10;0.10;;;;;;;14.44;60.70;101608.06;5022736;28;20029;-82
2023/05/01 06:10:47;;;;;;;0.05;0.05;;;;;;;14.50;60.64;101599.94;5011829;28;20026;-82
2023/05/01 06:13:13;;;;;;;0.10;0.10;;;;;;;14.56;60.48;101598.91;5025886;28;20446;-80
2023/05/01 06:15:40;;;;;;;0.10;0.10;;;;;;;14.61;60.21;101602.34;5027073;28;20116;-80
2023/05/01 06:18:06;;;;;;;0.08;0.08;;;;;;;14.67;59.94;101601.34;5029575;28;20100;-82
2023/05/01 06:20:32;;;;;;;0.10;0.10;;;;;;;14.75;59.82;101604.69;5024099;28;20088;-82
2023/05/01 06:23:04;;;;;;;0.10;0.10;;;;;;;14.81;59.46;101599.19;5013960;28;20030;-82
2023/05/01 06:25:35;;;;;;;0.10;0.10;;;;;;;14.91;59.61;101605.19;5015214;28;20030;-82
2023/05/01 06:28:02;;;;;;;0.10;0.10;;;;;;;14.95;58.97;101595.31;5014435;28;20034;-82
2023/05/01 06:30:28;;;;;;;0.10;0.10;;;;;;;15.01;58.78;101612.03;5025481;28;20134;-81
2023/05/01 06:32:54;;;;;;;0.00;0.00;;;;;;;15.07;58.15;101608.31;5036044;28;20029;-82
2023/05/01 06:35:21;;;;;;;0.10;0.10;;;;;;;15.11;57.88;101607.31;5020063;28;20025;-82
2023/05/01 06:37:47;;;;;;;0.25;0.25;;;;;;;15.17;58.33;101607.16;5030395;28;20133;-82
2023/05/01 06:40:13;;;;;;;0.10;0.10;;;;;;;15.23;57.91;101599.88;5035400;28;20021;-81
2023/05/01 06:42:39;;;;;;;0.10;0.10;;;;;;;15.30;58.10;101604.16;5034721;28;20433;-82
2023/05/01 06:45:07;;;;;;;0.08;0.08;;;;;;;15.34;57.00;101603.16;5033843;28;20111;-81
2023/05/01 06:47:33;;;;;;;0.00;0.00;;;;;;;15.39;57.44;101601.25;5034385;28;20061;-82
2023/05/01 06:49:59;;;;;;;0.03;0.03;;;;;;;15.43;56.58;101604.69;5035943;28;20033;-82
2023/05/01 06:52:25;;;;;;;0.10;0.10;;;;;;;15.49;57.53;101605.41;5036377;28;20025;-80
2023/05/01 06:54:51;;;;;;;0.43;0.43;;;;;;;15.55;57.69;101604.31;5035219;28;20029;-81
2023/05/01 06:57:17;;;;;;;0.10;0.10;;;;;;;15.61;57.36;101605.97;5033944;28;20035;-80
2023/05/01 06:59:44;;;;;;;0.10;0.10;;;;;;;15.63;56.59;101599.66;5029872;28;20029;-80
2023/05/01 07:02:10;;;;;;;1.10;0.85;;;;;;;15.71;57.29;101599.41;5023985;28;20072;-80
2023/05/01 07:04:36;;;;;;;0.10;0.10;;;;;;;15.78;57.03;101601.00;5021395;28;20034;-80
2023/05/01 07:07:02;;;;;;;0.08;0.08;;;;;;;15.85;56.85;101604.41;5020420;28;20029;-79
2023/05/01 07:09:29;;;;;;;0.10;0.10;;;;;;;15.91;56.53;101603.34;5028946;28;20489;-80
2023/05/01 07:11:56;;;;;;;0.10;0.10;;;;;;;15.96;56.54;101606.75;5027761;28;20014;-80
2023/05/01 07:14:22;;;;;;;0.00;0.00;;;;;;;15.96;55.79;101602.28;5029165;28;20124;-80
2023/05/01 07:16:49;;;;;;;0.17;0.17;;;;;;;16.00;55.86;101609.28;5024218;28;20037;-79
2023/05/01 07:19:15;;;;;;;0.80;0.73;;;;;;;16.05;55.95;101601.13;5020981;28;20495;-80
2023/05/01 07:21:41;;;;;;;0.30;0.30;;;;;;;16.12;56.26;101601.81;5028794;28;20564;-80
2023/05/01 07:24:07;;;;;;;0.10;0.10;;;;;;;16.17;56.10;101606.09;5027091;28;20026;-80
2023/05/01 07:26:34;;;;;;;0.10;0.10;;;;;;;16.24;55.62;101608.56;5028740;28;20033;-81
2023/05/01 07:29:00;;;;;;;0.10;0.10;;;;;;;16.29;54.19;101609.31;5027399;28;20380;-81
2023/05/01 07:31:26;;;;;;;0.10;0.10;;;;;;;16.37;54.62;101601.03;5032873;28;20037;-80
2023/05/01 07:33:52;;;;;;;0.10;0.10;;;;;;;16.45;54.65;101607.88;5027151;28;20435;-80
2023/05/01 07:36:19;;;;;;;0.10;0.10;;;;;;;16.49;54.01;101600.63;5022407;28;20025;-81
2023/05/01 07:38:45;;;;;;;0.63;0.63;;;;;;;16.57;53.84;101603.03;5030724;28;20033;-81
2023/05/01 07:41:11;;;;;;;0.10;0.10;;;;;;;16.62;53.18;101601.09;5026970;28;20033;-81
2023/05/01 07:43:37;;;;;;;0.00;0.00;;;;;;;16.74;54.08;101600.69;5027437;28;20041;-80
2023/05/01 07:46:04;;;;;;;0.00;0.00;;;;;;;16.81;52.48;101604.91;5027921;28;20036;-82
2023/05/01 07:48:31;;;;;;;0.10;0.10;;;;;;;16.89;53.53;101601.97;5028014;28;20026;-82
2023/05/01 07:51:02;;;;;;;0.10;0.10;;;;;;;16.98;53.50;101607.03;5030632;28;20468;-82
2023/05/01 07:53:28;;;;;;;0.10;0.10;;;;;;;16.99;51.89;101607.91;5030956;28;20030;-82
2023/05/01 07:56:03;;;;;;;0.10;0.10;;;;;;;17.03;53.63;101609.53;5033770;28;20490;-82
2023/05/01 07:58:29;;;;;;;0.15;0.15;;;;;;;17.06;53.24;101606.78;5032789;28;20475;-80
2023/05/01 08:00:55;;;;;;;0.13;0.13;;;;;;;17.10;53.08;101603.03;5029790;28;20032;-81
2023/05/01 08:03:21;;;;;;;0.10;0.10;;;;;;;17.14;52.75;101607.34;5032673;28;20034;-82
2023/05/01 08:05:47;;;;;;;0.10;0.10;;;;;;;17.18;52.92;101593.88;5028879;28;20517;-82
2023/05/01 08:08:19;;;;;;;0.10;0.10;;;;;;;17.22;53.17;101591.03;5025466;28;20546;-81
2023/05/01 08:10:45;;;;;;;0.40;0.40;;;;;;;17.23;52.17;101597.25;5035348;28;20029;-81
2023/05/01 08:13:11;;;;;;;0.10;0.10;;;;;;;17.27;52.73;101598.88;5030971;28;20030;-81
2023/05/01 08:15:38;;;;;;;0.10;0.10;;;;;;;17.31;53.25;101597.88;5029504;28;20041;-82
2023/05/01 08:18:04;;;;;;;0.32;0.32;;;;;;;17.39;53.16;101598.44;5031358;28;20437;-82
2023/05/01 08:20:30;;;;;;;0.50;0.40;;;;;;;17.49;52.83;101598.13;5036650;28;20411;-82
2023/05/01 08:22:56;;;;;;;0.43;0.43;;;;;;;17.57;52.14;101596.91;5036807;28;20113;-82
2023/05/01 08:25:23;;;;;;;2.90;2.30;;;;;;;17.68;51.59;101598.28;5034032;28;20037;-81
2023/05/01 08:27:50;;;;;;;0.10;0.10;;;;;;;17.77;51.04;101597.97;5028981;28;20037;-83
2023/05/01 08:30:16;;;;;;;0.00;0.00;;;;;;;17.89;51.51;101601.97;5031367;28;20048;-82
2023/05/01 08:32:42;;;;;;;1.27;1.17;;;;;;;17.93;50.17;101592.84;5029049;28;20025;-83
2023/05/01 08:35:08;;;;;;;0.08;0.08;;;;;;;17.99;51.02;101592.66;5037374;28;20025;-83
2023/05/01 08:37:35;;;;;;;0.20;0.20;;;;;;;18.05;51.57;101592.41;5034383;28;20022;-81
2023/05/01 08:40:07;;;;;;;0.10;0.10;;;;;;;18.11;51.62;101596.69;5040187;28;20375;-83
2023/05/01 08:42:35;;;;;;;0.10;0.10;;;;;;;18.14;49.66;101598.34;5036963;28;20521;-82
2023/05/01 08:45:03;;;;;;;0.10;0.10;;;;;;;18.19;50.94;101601.72;5032505;28;20034;-83
2023/05/01 08:47:29;;;;;;;0.10;0.10;;;;;;;18.21;51.21;101598.03;5032085;28;20495;-81
2023/05/01 08:49:58;;;;;;;0.10;0.10;;;;;;;18.25;51.06;101599.66;5037854;28;20410;-81
2023/05/01 08:52:27;;;;;;;0.75;0.75;;;;;;;18.25;51.15;101605.03;5032686;28;20528;-80
2023/05/01 08:54:55;;;;;;;0.00;0.00;;;;;;;18.20;50.18;101612.38;5024932;28;20053;-79
2023/05/01 08:57:22;;;;;;;0.10;0.10;;;;;;;18.22;50.37;101615.03;5034564;28;20094;-81
2023/05/01 08:59:50;;;;;;;0.00;0.00;;;;;;;18.22;50.09;101615.03;5028407;28;20021;-82
2023/05/01 09:02:17;;;;;;;0.00;0.00;;;;;;;18.21;51.11;101613.28;5030241;28;20084;-80
2023/05/01 09:04:44;;;;;;;0.10;0.10;;;;;;;18.25;50.07;101609.53;5030707;28;20036;-81
2023/05/01 09:07:10;;;;;;;0.03;0.03;;;;;;;18.26;50.23;101611.28;5039499;28;20395;-81
2023/05/01 09:09:36;;;;;;;0.00;0.00;;;;;;;18.25;50.45;101615.75;5028880;28;20025;-82
2023/05/01 09:12:22;;;;;;;0.10;0.10;;;;;;;18.25;49.32;101620.25;5029985;28;20025;-83
2023/05/01 09:14:50;;;;;;;0.08;0.08;;;;;;;18.17;49.82;101622.34;5028568;28;20112;-81
2023/05/01 09:17:17;;;;;;;2.10;0.50;;;;;;;18.03;50.06;101636.31;5028429;28;20034;-83
2023/05/01 09:19:44;;;;;;;0.03;0.03;;;;;;;17.92;50.02;101629.53;5025089;28;20039;-83
2023/05/01 09:22:10;;;;;;;0.10;0.10;;;;;;;17.84;50.13;101636.13;5028682;28;20026;-80
2023/05/01 09:24:36;;;;;;;0.43;0.32;;;;;;;17.87;50.34;101639.56;5028242;28;20052;-80
2023/05/01 09:27:02;;;;;;;0.65;0.40;;;;;;;17.88;50.01;101644.00;5025980;28;20514;-82
2023/05/01 09:29:38;;;;;;;0.30;0.30;;;;;;;17.97;50.28;101640.13;5032624;28;20178;-81
2023/05/01 09:34:52;;;;;;;0.10;0.10;;;;;;;18.06;49.28;101641.56;5105175;27;1231351;-83
2023/05/01 09:40:10;;;;;;;0.10;0.10;;;;;;;18.24;48.66;101639.97;5107701;27;1232142;-81
2023/05/01 09:42:54;;;;;;;0.30;0.30;;;;;;;18.37;48.47;101641.22;5120551;27;20063;-83
2023/05/01 09:45:22;;;;;;;0.10;0.10;;;;;;;18.36;48.15;101636.78;5098817;28;20051;-82
2023/05/01 09:47:48;;;;;;;0.10;0.10;;;;;;;18.42;48.07;101635.69;5109580;28;20256;-84
2023/05/01 09:50:34;;;;;;;0.10;0.10;;;;;;;18.59;47.76;101634.97;5112834;28;20031;-81
2023/05/01 09:53:03;;;;;;;0.10;0.10;;;;;;;18.55;46.99;101641.41;5109344;28;20024;-81
2023/05/01 09:55:29;;;;;;;0.25;0.25;;;;;;;18.57;46.11;101642.25;5112950;28;20111;-84
2023/05/01 09:57:57;;;;;;;0.20;0.20;;;;;;;18.56;46.36;101635.97;5105535;28;20417;-83
2023/05/01 10:00:24;;;;;;;0.77;0.77;;;;;;;18.52;46.33;101649.63;5099565;28;20425;-83
2023/05/01 10:02:51;;;;;;;0.03;0.03;;;;;;;18.51;45.83;101647.84;5103515;28;20049;-83
2023/05/01 10:05:18;;;;;;;0.10;0.10;;;;;;;18.52;46.54;101655.84;5105775;28;20477;-83
2023/05/01 10:08:01;;;;;;;0.20;0.20;;;;;;;18.52;45.75;101652.28;5104488;28;20054;-83
2023/05/01 10:10:27;;;;;;;0.55;0.55;;;;;;;18.42;46.54;101652.66;5106844;28;20106;-80
2023/05/01 10:12:54;;;;;;;0.10;0.10;;;;;;;18.37;46.83;101657.31;5095579;28;20033;-81
2023/05/01 10:15:20;;;;;;;0.10;0.10;;;;;;;18.29;47.06;101654.06;5095892;28;20016;-83
2023/05/01 10:17:51;;;;;;;0.20;0.20;;;;;;;18.23;46.57;101659.66;5104692;28;20076;-83
2023/05/01 10:20:17;;;;;;;0.08;0.08;;;;;;;18.17;46.95;101662.59;5106791;28;20015;-82
2023/05/01 10:22:43;;;;;;;0.10;0.10;;;;;;;18.11;47.26;101669.94;5105609;28;20020;-80
2023/05/01 10:25:11;;;;;;;0.00;0.00;;;;;;;18.01;47.45;101673.91;5104627;28;20024;-81
2023/05/01 10:27:40;;;;;;;1.75;1.65;;;;;;;17.90;47.48;101689.50;5093993;28;20077;-82
2023/05/01 10:30:07;;;;;;;0.10;0.10;;;;;;;17.68;47.59;101671.53;5102517;28;20043;-82
2023/05/01 10:32:36;;;;;;;0.10;0.10;;;;;;;17.43;48.45;101685.81;5103015;28;20038;-82
2023/05/01 10:35:08;;;;;;;0.10;0.10;;;;;;;17.19;49.02;101678.66;5099793;28;20035;-83
2023/05/01 10:48:53;;;;;;;0.20;0.20;;;;;;;16.44;52.04;101693.53;5108758;27;20407;-81
2023/05/01 10:51:22;;;;;;;0.35;0.35;;;;;;;16.35;51.98;101694.69;5091760;28;20028;-82
2023/05/01 10:54:09;;;;;;;0.08;0.08;;;;;;;16.28;52.14;101693.13;5081379;28;20063;-82
2023/05/01 10:59:16;;;;;;;0.00;0.00;;;;;;;16.19;54.10;101699.63;5063812;28;20780;-80
2023/05/01 11:01:44;;;;;;;0.63;0.63;;;;;;;16.08;53.66;101694.56;5049594;28;20059;-81
2023/05/01 11:09:40;;;;;;;0.55;0.55;;;;;;;15.61;55.47;101691.44;5113775;27;20146;-78
2023/05/01 11:12:08;;;;;;;1.25;0.75;;;;;;;15.48;55.61;101686.44;5102446;28;20027;-80
2023/05/01 11:23:00;;;;;;;0.10;0.10;;;;;;;15.35;56.81;101685.00;5096515;27;20401;-77
2023/05/01 11:25:30;;;;;;;0.10;0.10;;;;;;;15.33;58.95;101677.03;5089095;28;20493;-78
2023/05/01 11:28:00;;;;;;;0.10;0.10;;;;;;;15.33;58.38;101685.03;5087347;28;20047;-76
2023/05/01 11:30:36;;;;;;;0.10;0.10;;;;;;;15.35;56.70;101680.56;5089090;28;20115;-78
2023/05/01 11:33:03;;;;;;;0.10;0.10;;;;;;;15.33;57.45;101678.84;5089981;28;20024;-79
2023/05/01 11:35:31;;;;;;;0.10;0.10;;;;;;;15.34;58.06;101678.78;5089474;28;20055;-79
2023/05/01 11:37:57;;;;;;;0.10;0.10;;;;;;;15.36;56.93;101676.06;5090874;28;20020;-79
2023/05/01 11:43:05;;;;;;;0.10;0.10;;;;;;;15.48;57.94;101682.91;5059221;28;20407;-79
2023/05/01 11:45:33;;;;;;;0.00;0.00;;;;;;;15.53;58.21;101683.63;5053913;28;20381;-79
2023/05/01 11:48:01;;;;;;;0.10;0.10;;;;;;;15.59;58.23;101677.22;5053734;28;20029;-79
2023/05/01 11:50:42;;;;;;;0.00;0.00;;;;;;;15.69;59.82;101676.09;5048531;28;20035;-79
2023/05/01 11:53:14;;;;;;;0.10;0.10;;;;;;;15.64;58.06;101667.31;5047618;28;20025;-80
2023/05/01 11:55:40;;;;;;;0.10;0.10;;;;;;;15.63;59.03;101673.59;5049471;28;20086;-78
2023/05/01 11:58:07;;;;;;;0.20;0.20;;;;;;;15.66;58.78;101668.13;5047006;28;20029;-78
2023/05/01 12:00:36;;;;;;;0.10;0.10;;;;;;;15.73;58.29;101669.72;5048685;28;20032;-79
2023/05/01 12:03:07;;;;;;;0.10;0.10;;;;;;;15.80;58.65;101671.31;5048934;28;20036;-78
2023/05/01 12:05:36;;;;;;;0.10;0.10;;;;;;;15.88;58.75;101672.91;5048502;28;20041;-79
2023/05/01 12:08:12;;;;;;;0.10;0.10;;;;;;;15.97;58.61;101673.50;5047747;28;20029;-80
2023/05/01 12:10:41;;;;;;;0.10;0.10;;;;;;;16.01;57.84;101675.19;5048392;28;20487;-80
2023/05/01 12:13:10;;;;;;;0.10;0.10;;;;;;;16.10;58.56;101683.84;5047495;28;20029;-80
2023/05/01 12:15:38;;;;;;;0.10;0.10;;;;;;;16.21;58.83;101678.19;5048130;28;20032;-80